sensor_id;sensor_type;location;lat;lon;timestamp;pressure;altitude;pressure_sealevel;temperature;humidity
77019;BME280;66044;53.142;17.962;2024-02-15T00:00:15;101390.58;;;6.60;81.84
77019;BME280;66044;53.142;17.962;2024-02-15T00:03:03;101392.27;;;6.60;81.94
77019;BME280;66044;53.142;17.962;2024-02-15T00:05:33;101394.71;;;6.62;82.09
77019;BME280;66044;53.142;17.962;2024-02-15T00:08:02;101395.02;;;6.62;82.44
77019;BME280;66044;53.142;17.962;2024-02-15T00:10:28;101391.97;;;6.63;82.47
77019;BME280;66044;53.142;17.962;2024-02-15T00:12:54;101392.17;;;6.64;82.45
77019;BME280;66044;53.142;17.962;2024-02-15T00:15:20;101389.98;;;6.65;82.74
77019;BME280;66044;53.142;17.962;2024-02-15T00:17:46;101383.73;;;6.65;82.64
77019;BME280;66044;53.142;17.962;2024-02-15T00:20:12;101383.63;;;6.66;82.40
77019;BME280;66044;53.142;17.962;2024-02-15T00:22:39;101388.64;;;6.68;82.33
77019;BME280;66044;53.142;17.962;2024-02-15T00:25:07;101388.02;;;6.69;82.56
77019;BME280;66044;53.142;17.962;2024-02-15T00:27:35;101384.59;;;6.71;82.50
77019;BME280;66044;53.142;17.962;2024-02-15T00:30:02;101383.98;;;6.72;82.90
77019;BME280;66044;53.142;17.962;2024-02-15T00:32:28;101384.57;;;6.73;82.75
77019;BME280;66044;53.142;17.962;2024-02-15T00:34:53;101379.54;;;6.75;82.70
77019;BME280;66044;53.142;17.962;2024-02-15T00:37:20;101378.41;;;6.76;82.67
77019;BME280;66044;53.142;17.962;2024-02-15T00:39:46;101381.59;;;6.77;82.93
77019;BME280;66044;53.142;17.962;2024-02-15T00:42:11;101383.02;;;6.78;82.94
77019;BME280;66044;53.142;17.962;2024-02-15T00:44:37;101385.52;;;6.79;82.92
77019;BME280;66044;53.142;17.962;2024-02-15T00:47:03;101382.10;;;6.79;82.91
77019;BME280;66044;53.142;17.962;2024-02-15T00:49:29;101387.22;;;6.80;83.10
77019;BME280;66044;53.142;17.962;2024-02-15T00:51:55;101382.73;;;6.81;83.26
77019;BME280;66044;53.142;17.962;2024-02-15T00:54:20;101379.90;;;6.82;83.12
77019;BME280;66044;53.142;17.962;2024-02-15T00:56:48;101382.98;;;6.83;83.43
77019;BME280;66044;53.142;17.962;2024-02-15T00:59:14;101382.45;;;6.84;83.27
77019;BME280;66044;53.142;17.962;2024-02-15T01:01:39;101382.68;;;6.85;83.05
77019;BME280;66044;53.142;17.962;2024-02-15T01:04:06;101382.77;;;6.86;83.25
77019;BME280;66044;53.142;17.962;2024-02-15T01:06:33;101382.07;;;6.87;83.25
77019;BME280;66044;53.142;17.962;2024-02-15T01:08:59;101382.71;;;6.88;83.37
77019;BME280;66044;53.142;17.962;2024-02-15T01:11:27;101380.03;;;6.89;83.50
77019;BME280;66044;53.142;17.962;2024-02-15T01:13:55;101377.14;;;6.90;83.35
77019;BME280;66044;53.142;17.962;2024-02-15T01:16:21;101377.62;;;6.90;83.30
77019;BME280;66044;53.142;17.962;2024-02-15T01:18:47;101377.75;;;6.91;83.49
77019;BME280;66044;53.142;17.962;2024-02-15T01:21:13;101380.62;;;6.92;83.45
77019;BME280;66044;53.142;17.962;2024-02-15T01:23:39;101378.05;;;6.94;83.59
77019;BME280;66044;53.142;17.962;2024-02-15T01:26:05;101378.63;;;6.95;83.72
77019;BME280;66044;53.142;17.962;2024-02-15T01:28:30;101374.66;;;6.96;83.85
77019;BME280;66044;53.142;17.962;2024-02-15T01:30:56;101373.80;;;6.97;83.65
77019;BME280;66044;53.142;17.962;2024-02-15T01:33:22;101378.51;;;6.97;83.70
77019;BME280;66044;53.142;17.962;2024-02-15T01:35:48;101375.14;;;6.98;83.85
77019;BME280;66044;53.142;17.962;2024-02-15T01:38:14;101377.22;;;6.98;83.84
77019;BME280;66044;53.142;17.962;2024-02-15T01:40:40;101376.13;;;6.99;83.63
77019;BME280;66044;53.142;17.962;2024-02-15T01:43:06;101370.86;;;7.01;83.87
77019;BME280;66044;53.142;17.962;2024-02-15T01:45:32;101365.57;;;7.02;83.62
77019;BME280;66044;53.142;17.962;2024-02-15T01:47:58;101364.23;;;7.02;84.03
77019;BME280;66044;53.142;17.962;2024-02-15T01:50:24;101367.34;;;7.03;83.68
77019;BME280;66044;53.142;17.962;2024-02-15T01:52:52;101364.70;;;7.03;83.87
77019;BME280;66044;53.142;17.962;2024-02-15T01:55:21;101362.19;;;7.05;83.75
77019;BME280;66044;53.142;17.962;2024-02-15T01:57:48;101360.73;;;7.06;84.14
77019;BME280;66044;53.142;17.962;2024-02-15T02:00:17;101362.85;;;7.07;83.79
77019;BME280;66044;53.142;17.962;2024-02-15T02:02:44;101358.12;;;7.08;84.10
77019;BME280;66044;53.142;17.962;2024-02-15T02:05:11;101358.45;;;7.08;84.08
77019;BME280;66044;53.142;17.962;2024-02-15T02:07:37;101358.07;;;7.08;84.07
77019;BME280;66044;53.142;17.962;2024-02-15T02:10:04;101360.58;;;7.09;84.08
77019;BME280;66044;53.142;17.962;2024-02-15T02:12:30;101358.16;;;7.10;84.12
77019;BME280;66044;53.142;17.962;2024-02-15T02:14:56;101356.60;;;7.12;84.21
77019;BME280;66044;53.142;17.962;2024-02-15T02:17:22;101356.01;;;7.12;84.21
77019;BME280;66044;53.142;17.962;2024-02-15T02:19:49;101353.16;;;7.13;84.36
77019;BME280;66044;53.142;17.962;2024-02-15T02:22:18;101352.73;;;7.13;84.32
77019;BME280;66044;53.142;17.962;2024-02-15T02:25:06;101353.23;;;7.14;84.13
77019;BME280;66044;53.142;17.962;2024-02-15T02:27:34;101353.16;;;7.15;84.42
77019;BME280;66044;53.142;17.962;2024-02-15T02:30:05;101351.29;;;7.16;84.29
77019;BME280;66044;53.142;17.962;2024-02-15T02:32:41;101350.96;;;7.18;84.33
77019;BME280;66044;53.142;17.962;2024-02-15T02:35:07;101348.55;;;7.18;84.50
77019;BME280;66044;53.142;17.962;2024-02-15T02:37:33;101347.84;;;7.19;84.71
77019;BME280;66044;53.142;17.962;2024-02-15T02:40:04;101344.10;;;7.20;84.84
77019;BME280;66044;53.142;17.962;2024-02-15T02:42:30;101344.30;;;7.21;84.54
77019;BME280;66044;53.142;17.962;2024-02-15T02:44:56;101342.37;;;7.22;84.62
77019;BME280;66044;53.142;17.962;2024-02-15T02:47:21;101338.98;;;7.23;84.81
77019;BME280;66044;53.142;17.962;2024-02-15T02:49:47;101340.46;;;7.23;84.88
77019;BME280;66044;53.142;17.962;2024-02-15T02:52:13;101339.13;;;7.24;84.82
77019;BME280;66044;53.142;17.962;2024-02-15T02:54:39;101343.87;;;7.25;84.90
77019;BME280;66044;53.142;17.962;2024-02-15T02:57:05;101346.21;;;7.26;84.80
77019;BME280;66044;53.142;17.962;2024-02-15T02:59:34;101345.14;;;7.27;84.72
77019;BME280;66044;53.142;17.962;2024-02-15T03:02:01;101344.11;;;7.28;84.67
77019;BME280;66044;53.142;17.962;2024-02-15T03:04:29;101345.38;;;7.28;85.22
77019;BME280;66044;53.142;17.962;2024-02-15T03:06:55;101345.20;;;7.29;85.13
77019;BME280;66044;53.142;17.962;2024-02-15T03:09:23;101343.09;;;7.31;85.07
77019;BME280;66044;53.142;17.962;2024-02-15T03:11:48;101339.88;;;7.32;85.21
77019;BME280;66044;53.142;17.962;2024-02-15T03:14:15;101343.13;;;7.33;85.09
77019;BME280;66044;53.142;17.962;2024-02-15T03:16:41;101344.13;;;7.34;84.86
77019;BME280;66044;53.142;17.962;2024-02-15T03:19:07;101341.14;;;7.35;84.98
77019;BME280;66044;53.142;17.962;2024-02-15T03:21:34;101345.45;;;7.36;84.82
77019;BME280;66044;53.142;17.962;2024-02-15T03:24:01;101345.03;;;7.36;85.16
77019;BME280;66044;53.142;17.962;2024-02-15T03:26:30;101348.17;;;7.36;85.16
77019;BME280;66044;53.142;17.962;2024-02-15T03:29:07;101349.42;;;7.37;85.66
77019;BME280;66044;53.142;17.962;2024-02-15T03:31:34;101351.45;;;7.38;84.96
77019;BME280;66044;53.142;17.962;2024-02-15T03:34:03;101349.94;;;7.39;85.48
77019;BME280;66044;53.142;17.962;2024-02-15T03:36:29;101350.27;;;7.39;85.14
77019;BME280;66044;53.142;17.962;2024-02-15T03:38:55;101351.91;;;7.41;85.34
77019;BME280;66044;53.142;17.962;2024-02-15T03:41:22;101353.98;;;7.42;85.25
77019;BME280;66044;53.142;17.962;2024-02-15T03:43:48;101351.35;;;7.42;85.46
77019;BME280;66044;53.142;17.962;2024-02-15T03:46:14;101352.58;;;7.44;85.35
77019;BME280;66044;53.142;17.962;2024-02-15T03:48:44;101350.48;;;7.44;85.24
77019;BME280;66044;53.142;17.962;2024-02-15T03:51:09;101345.33;;;7.45;85.64
77019;BME280;66044;53.142;17.962;2024-02-15T03:53:35;101345.65;;;7.45;85.40
77019;BME280;66044;53.142;17.962;2024-02-15T03:56:05;101347.98;;;7.46;85.47
77019;BME280;66044;53.142;17.962;2024-02-15T03:58:32;101347.77;;;7.46;85.51
77019;BME280;66044;53.142;17.962;2024-02-15T04:00:59;101346.05;;;7.47;85.79
77019;BME280;66044;53.142;17.962;2024-02-15T04:03:25;101344.98;;;7.47;85.38
77019;BME280;66044;53.142;17.962;2024-02-15T04:05:51;101345.61;;;7.47;85.52
77019;BME280;66044;53.142;17.962;2024-02-15T04:08:19;101348.61;;;7.48;85.50
77019;BME280;66044;53.142;17.962;2024-02-15T04:10:45;101353.53;;;7.47;85.62
77019;BME280;66044;53.142;17.962;2024-02-15T04:13:11;101354.48;;;7.48;85.66
77019;BME280;66044;53.142;17.962;2024-02-15T04:15:37;101355.71;;;7.48;85.87
77019;BME280;66044;53.142;17.962;2024-02-15T04:18:04;101354.58;;;7.49;85.47
77019;BME280;66044;53.142;17.962;2024-02-15T04:20:30;101356.02;;;7.49;85.44
77019;BME280;66044;53.142;17.962;2024-02-15T04:22:56;101357.79;;;7.49;85.68
77019;BME280;66044;53.142;17.962;2024-02-15T04:25:23;101357.40;;;7.50;85.73
77019;BME280;66044;53.142;17.962;2024-02-15T04:27:53;101358.10;;;7.50;85.75
77019;BME280;66044;53.142;17.962;2024-02-15T04:30:19;101358.52;;;7.50;85.92
77019;BME280;66044;53.142;17.962;2024-02-15T04:32:45;101357.29;;;7.51;85.51
77019;BME280;66044;53.142;17.962;2024-02-15T04:35:12;101359.00;;;7.51;85.63
77019;BME280;66044;53.142;17.962;2024-02-15T04:37:39;101358.63;;;7.51;85.63
77019;BME280;66044;53.142;17.962;2024-02-15T04:40:06;101363.84;;;7.52;85.67
77019;BME280;66044;53.142;17.962;2024-02-15T04:42:36;101367.30;;;7.52;85.61
77019;BME280;66044;53.142;17.962;2024-02-15T04:45:10;101365.00;;;7.52;85.67
77019;BME280;66044;53.142;17.962;2024-02-15T04:47:37;101362.24;;;7.52;85.77
77019;BME280;66044;53.142;17.962;2024-02-15T04:50:03;101362.17;;;7.52;85.77
77019;BME280;66044;53.142;17.962;2024-02-15T04:52:31;101359.19;;;7.52;85.85
77019;BME280;66044;53.142;17.962;2024-02-15T04:54:57;101361.33;;;7.52;86.05
77019;BME280;66044;53.142;17.962;2024-02-15T04:57:26;101356.84;;;7.52;85.57
77019;BME280;66044;53.142;17.962;2024-02-15T04:59:54;101364.48;;;7.52;85.52
77019;BME280;66044;53.142;17.962;2024-02-15T05:02:20;101365.77;;;7.52;85.69
77019;BME280;66044;53.142;17.962;2024-02-15T05:04:47;101365.70;;;7.52;85.78
77019;BME280;66044;53.142;17.962;2024-02-15T05:07:13;101365.16;;;7.52;85.55
77019;BME280;66044;53.142;17.962;2024-02-15T05:09:42;101367.40;;;7.53;85.61
77019;BME280;66044;53.142;17.962;2024-02-15T05:12:08;101369.52;;;7.54;85.84
77019;BME280;66044;53.142;17.962;2024-02-15T05:14:34;101368.02;;;7.54;85.97
77019;BME280;66044;53.142;17.962;2024-02-15T05:17:02;101360.31;;;7.55;85.86
77019;BME280;66044;53.142;17.962;2024-02-15T05:19:28;101358.91;;;7.56;85.68
77019;BME280;66044;53.142;17.962;2024-02-15T05:21:55;101355.29;;;7.55;85.77
77019;BME280;66044;53.142;17.962;2024-02-15T05:24:21;101357.75;;;7.56;85.47
77019;BME280;66044;53.142;17.962;2024-02-15T05:26:47;101357.80;;;7.56;85.65
77019;BME280;66044;53.142;17.962;2024-02-15T05:29:14;101359.13;;;7.57;85.62
77019;BME280;66044;53.142;17.962;2024-02-15T05:31:41;101358.32;;;7.57;85.82
77019;BME280;66044;53.142;17.962;2024-02-15T05:34:07;101364.30;;;7.58;85.93
77019;BME280;66044;53.142;17.962;2024-02-15T05:36:34;101365.04;;;7.59;85.89
77019;BME280;66044;53.142;17.962;2024-02-15T05:39:00;101364.70;;;7.59;85.87
77019;BME280;66044;53.142;17.962;2024-02-15T05:41:28;101362.43;;;7.60;85.60
77019;BME280;66044;53.142;17.962;2024-02-15T05:43:55;101362.64;;;7.60;85.69
77019;BME280;66044;53.142;17.962;2024-02-15T05:46:23;101360.77;;;7.60;85.51
77019;BME280;66044;53.142;17.962;2024-02-15T05:48:49;101361.79;;;7.61;85.74
77019;BME280;66044;53.142;17.962;2024-02-15T05:51:15;101362.58;;;7.61;85.62
77019;BME280;66044;53.142;17.962;2024-02-15T05:53:41;101364.45;;;7.61;85.80
77019;BME280;66044;53.142;17.962;2024-02-15T05:56:08;101365.20;;;7.61;85.67
77019;BME280;66044;53.142;17.962;2024-02-15T05:58:34;101361.17;;;7.62;85.60
77019;BME280;66044;53.142;17.962;2024-02-15T06:01:03;101369.52;;;7.62;85.65
77019;BME280;66044;53.142;17.962;2024-02-15T06:03:32;101372.51;;;7.63;85.72
77019;BME280;66044;53.142;17.962;2024-02-15T06:06:03;101374.64;;;7.64;85.69
77019;BME280;66044;53.142;17.962;2024-02-15T06:08:33;101374.10;;;7.65;85.38
77019;BME280;66044;53.142;17.962;2024-02-15T06:10:59;101375.30;;;7.66;85.67
77019;BME280;66044;53.142;17.962;2024-02-15T06:13:25;101377.84;;;7.68;85.55
77019;BME280;66044;53.142;17.962;2024-02-15T06:15:54;101377.83;;;7.69;85.53
77019;BME280;66044;53.142;17.962;2024-02-15T06:18:26;101383.16;;;7.71;85.51
77019;BME280;66044;53.142;17.962;2024-02-15T06:20:57;101379.25;;;7.71;85.39
77019;BME280;66044;53.142;17.962;2024-02-15T06:23:25;101384.16;;;7.72;85.43
77019;BME280;66044;53.142;17.962;2024-02-15T06:25:57;101386.88;;;7.73;85.43
77019;BME280;66044;53.142;17.962;2024-02-15T06:28:29;101385.25;;;7.74;85.67
77019;BME280;66044;53.142;17.962;2024-02-15T06:31:14;101391.95;;;7.75;85.42
77019;BME280;66044;53.142;17.962;2024-02-15T06:33:59;101388.37;;;7.76;85.31
77019;BME280;66044;53.142;17.962;2024-02-15T06:36:48;101393.65;;;7.76;85.44
77019;BME280;66044;53.142;17.962;2024-02-15T06:39:33;101396.05;;;7.78;85.33
77019;BME280;66044;53.142;17.962;2024-02-15T06:42:10;101398.13;;;7.78;85.23
77019;BME280;66044;53.142;17.962;2024-02-15T06:44:37;101397.22;;;7.78;85.36
77019;BME280;66044;53.142;17.962;2024-02-15T06:47:06;101398.33;;;7.79;85.38
77019;BME280;66044;53.142;17.962;2024-02-15T06:49:33;101402.18;;;7.80;85.35
77019;BME280;66044;53.142;17.962;2024-02-15T06:51:59;101405.27;;;7.80;85.41
77019;BME280;66044;53.142;17.962;2024-02-15T06:54:27;101409.70;;;7.82;85.55
77019;BME280;66044;53.142;17.962;2024-02-15T06:56:53;101412.02;;;7.82;85.38
77019;BME280;66044;53.142;17.962;2024-02-15T06:59:20;101417.68;;;7.84;85.59
77019;BME280;66044;53.142;17.962;2024-02-15T07:01:49;101420.41;;;7.84;85.27
77019;BME280;66044;53.142;17.962;2024-02-15T07:04:18;101421.67;;;7.85;85.48
77019;BME280;66044;53.142;17.962;2024-02-15T07:06:46;101422.80;;;7.86;85.23
77019;BME280;66044;53.142;17.962;2024-02-15T07:09:14;101423.64;;;7.87;85.22
77019;BME280;66044;53.142;17.962;2024-02-15T07:11:45;101419.14;;;7.87;85.06
77019;BME280;66044;53.142;17.962;2024-02-15T07:14:13;101419.14;;;7.88;85.20
77019;BME280;66044;53.142;17.962;2024-02-15T07:16:39;101421.70;;;7.89;85.35
77019;BME280;66044;53.142;17.962;2024-02-15T07:19:06;101427.14;;;7.89;85.31
77019;BME280;66044;53.142;17.962;2024-02-15T07:21:34;101422.73;;;7.90;85.53
77019;BME280;66044;53.142;17.962;2024-02-15T07:24:01;101424.69;;;7.92;85.13
77019;BME280;66044;53.142;17.962;2024-02-15T07:26:27;101421.36;;;7.92;85.19
77019;BME280;66044;53.142;17.962;2024-02-15T07:28:54;101418.30;;;7.93;85.36
77019;BME280;66044;53.142;17.962;2024-02-15T07:31:20;101421.15;;;7.96;85.54
77019;BME280;66044;53.142;17.962;2024-02-15T07:33:50;101416.30;;;7.98;85.45
77019;BME280;66044;53.142;17.962;2024-02-15T07:36:20;101417.39;;;8.01;85.66
77019;BME280;66044;53.142;17.962;2024-02-15T07:38:53;101419.33;;;8.04;85.62
77019;BME280;66044;53.142;17.962;2024-02-15T07:41:23;101419.86;;;8.06;85.62
77019;BME280;66044;53.142;17.962;2024-02-15T07:43:49;101420.77;;;8.07;85.61
77019;BME280;66044;53.142;17.962;2024-02-15T07:46:16;101421.34;;;8.09;85.65
77019;BME280;66044;53.142;17.962;2024-02-15T07:48:43;101419.16;;;8.11;85.48
77019;BME280;66044;53.142;17.962;2024-02-15T07:51:14;101421.75;;;8.13;85.65
77019;BME280;66044;53.142;17.962;2024-02-15T07:53:46;101420.31;;;8.18;85.43
77019;BME280;66044;53.142;17.962;2024-02-15T07:56:14;101424.20;;;8.21;85.60
77019;BME280;66044;53.142;17.962;2024-02-15T07:58:45;101423.77;;;8.26;85.53
77019;BME280;66044;53.142;17.962;2024-02-15T08:01:14;101426.11;;;8.30;85.46
77019;BME280;66044;53.142;17.962;2024-02-15T08:03:44;101430.00;;;8.33;85.54
77019;BME280;66044;53.142;17.962;2024-02-15T08:06:11;101430.77;;;8.35;85.63
77019;BME280;66044;53.142;17.962;2024-02-15T08:08:39;101429.72;;;8.36;85.45
77019;BME280;66044;53.142;17.962;2024-02-15T08:11:10;101430.87;;;8.39;85.36
77019;BME280;66044;53.142;17.962;2024-02-15T08:13:46;101428.36;;;8.42;85.36
77019;BME280;66044;53.142;17.962;2024-02-15T08:16:20;101425.09;;;8.46;85.43
77019;BME280;66044;53.142;17.962;2024-02-15T08:18:50;101429.91;;;8.48;85.31
77019;BME280;66044;53.142;17.962;2024-02-15T08:21:32;101429.86;;;8.49;85.29
77019;BME280;66044;53.142;17.962;2024-02-15T08:24:00;101432.63;;;8.49;85.38
77019;BME280;66044;53.142;17.962;2024-02-15T08:26:27;101433.29;;;8.50;85.26
77019;BME280;66044;53.142;17.962;2024-02-15T08:28:55;101436.00;;;8.52;85.21
77019;BME280;66044;53.142;17.962;2024-02-15T08:31:21;101437.77;;;8.52;85.17
77019;BME280;66044;53.142;17.962;2024-02-15T08:33:47;101440.17;;;8.53;85.27
77019;BME280;66044;53.142;17.962;2024-02-15T08:36:13;101440.27;;;8.54;85.29
77019;BME280;66044;53.142;17.962;2024-02-15T08:38:41;101439.77;;;8.55;85.21
77019;BME280;66044;53.142;17.962;2024-02-15T08:41:07;101442.12;;;8.56;85.36
77019;BME280;66044;53.142;17.962;2024-02-15T08:43:34;101437.23;;;8.56;85.24
77019;BME280;66044;53.142;17.962;2024-02-15T08:46:00;101437.21;;;8.57;85.36
77019;BME280;66044;53.142;17.962;2024-02-15T08:48:32;101442.60;;;8.58;85.49
77019;BME280;66044;53.142;17.962;2024-02-15T08:50:59;101445.12;;;8.58;85.42
77019;BME280;66044;53.142;17.962;2024-02-15T08:53:24;101447.36;;;8.56;85.33
77019;BME280;66044;53.142;17.962;2024-02-15T08:55:51;101450.59;;;8.56;85.38
77019;BME280;66044;53.142;17.962;2024-02-15T08:58:19;101446.92;;;8.57;85.33
77019;BME280;66044;53.142;17.962;2024-02-15T09:00:47;101444.52;;;8.58;85.44
77019;BME280;66044;53.142;17.962;2024-02-15T09:03:12;101445.14;;;8.60;85.45
77019;BME280;66044;53.142;17.962;2024-02-15T09:05:39;101445.16;;;8.63;85.47
77019;BME280;66044;53.142;17.962;2024-02-15T09:08:07;101442.72;;;8.67;85.39
77019;BME280;66044;53.142;17.962;2024-02-15T09:10:35;101442.67;;;8.73;85.47
77019;BME280;66044;53.142;17.962;2024-02-15T09:13:04;101444.98;;;8.79;85.59
77019;BME280;66044;53.142;17.962;2024-02-15T09:15:31;101451.39;;;8.87;85.43
77019;BME280;66044;53.142;17.962;2024-02-15T09:17:57;101456.38;;;8.92;85.41
77019;BME280;66044;53.142;17.962;2024-02-15T09:20:23;101453.86;;;8.99;85.43
77019;BME280;66044;53.142;17.962;2024-02-15T09:22:54;101453.27;;;9.04;85.35
77019;BME280;66044;53.142;17.962;2024-02-15T09:25:22;101450.92;;;9.07;85.32
77019;BME280;66044;53.142;17.962;2024-02-15T09:27:51;101452.21;;;9.10;85.27
77019;BME280;66044;53.142;17.962;2024-02-15T09:30:19;101447.75;;;9.13;85.25
77019;BME280;66044;53.142;17.962;2024-02-15T09:32:45;101446.02;;;9.18;85.36
77019;BME280;66044;53.142;17.962;2024-02-15T09:35:12;101446.48;;;9.24;85.28
77019;BME280;66044;53.142;17.962;2024-02-15T09:37:44;101448.84;;;9.32;85.40
77019;BME280;66044;53.142;17.962;2024-02-15T09:40:11;101448.39;;;9.39;85.10
77019;BME280;66044;53.142;17.962;2024-02-15T09:42:38;101447.31;;;9.45;85.27
77019;BME280;66044;53.142;17.962;2024-02-15T09:45:06;101443.61;;;9.50;85.19
77019;BME280;66044;53.142;17.962;2024-02-15T09:47:36;101444.30;;;9.58;85.04
77019;BME280;66044;53.142;17.962;2024-02-15T09:50:09;101445.73;;;9.66;84.94
77019;BME280;66044;53.142;17.962;2024-02-15T09:52:43;101445.55;;;9.74;84.85
77019;BME280;66044;53.142;17.962;2024-02-15T09:55:10;101445.33;;;9.81;84.58
77019;BME280;66044;53.142;17.962;2024-02-15T09:57:42;101449.39;;;9.87;84.63
77019;BME280;66044;53.142;17.962;2024-02-15T10:00:10;101451.71;;;9.93;84.29
77019;BME280;66044;53.142;17.962;2024-02-15T10:02:50;101458.33;;;10.00;84.31
77019;BME280;66044;53.142;17.962;2024-02-15T10:05:19;101459.41;;;10.09;84.52
77019;BME280;66044;53.142;17.962;2024-02-15T10:07:45;101465.03;;;10.18;84.42
77019;BME280;66044;53.142;17.962;2024-02-15T10:10:17;101460.73;;;10.23;84.33
77019;BME280;66044;53.142;17.962;2024-02-15T10:12:43;101466.10;;;10.26;84.34
77019;BME280;66044;53.142;17.962;2024-02-15T10:15:09;101465.64;;;10.25;83.89
77019;BME280;66044;53.142;17.962;2024-02-15T10:17:35;101465.61;;;10.23;83.69
77019;BME280;66044;53.142;17.962;2024-02-15T10:20:06;101464.48;;;10.22;84.02
77019;BME280;66044;53.142;17.962;2024-02-15T10:22:32;101462.60;;;10.20;83.86
77019;BME280;66044;53.142;17.962;2024-02-15T10:25:14;101459.05;;;10.17;83.75
77019;BME280;66044;53.142;17.962;2024-02-15T10:27:40;101456.11;;;10.13;83.51
77019;BME280;66044;53.142;17.962;2024-02-15T10:30:20;101457.44;;;10.11;83.80
77019;BME280;66044;53.142;17.962;2024-02-15T10:32:46;101451.63;;;10.09;83.85
77019;BME280;66044;53.142;17.962;2024-02-15T10:35:21;101447.65;;;10.09;83.75
77019;BME280;66044;53.142;17.962;2024-02-15T10:37:48;101441.34;;;10.11;83.77
77019;BME280;66044;53.142;17.962;2024-02-15T10:40:22;101437.70;;;10.15;83.87
77019;BME280;66044;53.142;17.962;2024-02-15T10:42:51;101440.34;;;10.21;83.54
77019;BME280;66044;53.142;17.962;2024-02-15T10:45:19;101435.82;;;10.28;83.67
77019;BME280;66044;53.142;17.962;2024-02-15T10:47:46;101433.89;;;10.35;83.70
77019;BME280;66044;53.142;17.962;2024-02-15T10:50:15;101432.12;;;10.41;83.25
77019;BME280;66044;53.142;17.962;2024-02-15T10:52:54;101429.08;;;10.44;83.37
77019;BME280;66044;53.142;17.962;2024-02-15T10:55:34;101427.97;;;10.48;83.07
77019;BME280;66044;53.142;17.962;2024-02-15T10:58:01;101431.35;;;10.51;83.00
77019;BME280;66044;53.142;17.962;2024-02-15T11:00:32;101426.86;;;10.52;82.92
77019;BME280;66044;53.142;17.962;2024-02-15T11:03:08;101425.81;;;10.53;82.78
77019;BME280;66044;53.142;17.962;2024-02-15T11:05:36;101425.97;;;10.53;82.91
77019;BME280;66044;53.142;17.962;2024-02-15T11:08:07;101427.04;;;10.53;82.98
77019;BME280;66044;53.142;17.962;2024-02-15T11:10:35;101421.83;;;10.53;83.12
77019;BME280;66044;53.142;17.962;2024-02-15T11:13:02;101419.56;;;10.52;82.98
77019;BME280;66044;53.142;17.962;2024-02-15T11:18:01;101417.30;;;10.52;82.96
77019;BME280;66044;53.142;17.962;2024-02-15T11:23:00;101411.48;;;10.57;83.14
77019;BME280;66044;53.142;17.962;2024-02-15T11:25:34;101412.09;;;10.61;82.61
77019;BME280;66044;53.142;17.962;2024-02-15T11:30:46;101414.20;;;10.70;82.83
77019;BME280;66044;53.142;17.962;2024-02-15T11:33:44;101408.75;;;10.75;82.73
77019;BME280;66044;53.142;17.962;2024-02-15T11:36:12;101409.60;;;10.80;82.64
77019;BME280;66044;53.142;17.962;2024-02-15T11:38:40;101409.58;;;10.83;82.50
77019;BME280;66044;53.142;17.962;2024-02-15T11:41:10;101402.32;;;10.85;82.62
77019;BME280;66044;53.142;17.962;2024-02-15T11:46:16;101402.66;;;10.90;82.49
77019;BME280;66044;53.142;17.962;2024-02-15T11:48:51;101401.34;;;10.93;82.52
77019;BME280;66044;53.142;17.962;2024-02-15T11:51:31;101402.98;;;10.97;82.44
77019;BME280;66044;53.142;17.962;2024-02-15T11:54:11;101402.35;;;10.96;82.37
77019;BME280;66044;53.142;17.962;2024-02-15T11:59:09;101403.30;;;10.93;82.20
77019;BME280;66044;53.142;17.962;2024-02-15T12:01:44;101404.63;;;10.90;82.13
77019;BME280;66044;53.142;17.962;2024-02-15T12:04:32;101405.94;;;10.86;82.06
77019;BME280;66044;53.142;17.962;2024-02-15T12:07:17;101409.52;;;10.83;81.96
77019;BME280;66044;53.142;17.962;2024-02-15T12:10:02;101409.84;;;10.81;81.92
77019;BME280;66044;53.142;17.962;2024-02-15T12:12:53;101414.81;;;10.80;82.10
77019;BME280;66044;53.142;17.962;2024-02-15T12:15:38;101412.41;;;10.79;82.30
77019;BME280;66044;53.142;17.962;2024-02-15T12:18:22;101411.46;;;10.79;82.03
77019;BME280;66044;53.142;17.962;2024-02-15T12:21:09;101409.49;;;10.78;82.10
77019;BME280;66044;53.142;17.962;2024-02-15T12:23:37;101408.96;;;10.78;81.96
77019;BME280;66044;53.142;17.962;2024-02-15T12:26:03;101405.05;;;10.79;82.04
77019;BME280;66044;53.142;17.962;2024-02-15T12:28:32;101401.56;;;10.81;82.23
77019;BME280;66044;53.142;17.962;2024-02-15T12:31:01;101400.45;;;10.82;81.94
77019;BME280;66044;53.142;17.962;2024-02-15T12:33:27;101395.98;;;10.84;81.85
77019;BME280;66044;53.142;17.962;2024-02-15T12:36:06;101396.30;;;10.84;81.69
77019;BME280;66044;53.142;17.962;2024-02-15T12:38:33;101398.36;;;10.84;81.76
77019;BME280;66044;53.142;17.962;2024-02-15T12:41:21;101396.27;;;10.84;81.88
77019;BME280;66044;53.142;17.962;2024-02-15T12:43:52;101397.02;;;10.83;81.70
77019;BME280;66044;53.142;17.962;2024-02-15T12:46:20;101396.20;;;10.84;81.83
77019;BME280;66044;53.142;17.962;2024-02-15T12:48:47;101391.63;;;10.84;81.80
77019;BME280;66044;53.142;17.962;2024-02-15T12:51:14;101396.98;;;10.86;81.94
77019;BME280;66044;53.142;17.962;2024-02-15T12:53:40;101394.36;;;10.87;81.66
77019;BME280;66044;53.142;17.962;2024-02-15T12:56:09;101393.23;;;10.87;81.98
77019;BME280;66044;53.142;17.962;2024-02-15T12:58:35;101394.63;;;10.88;81.66
77019;BME280;66044;53.142;17.962;2024-02-15T13:01:01;101394.37;;;10.87;81.84
77019;BME280;66044;53.142;17.962;2024-02-15T13:03:27;101392.34;;;10.86;81.74
77019;BME280;66044;53.142;17.962;2024-02-15T13:05:55;101392.09;;;10.88;81.93
77019;BME280;66044;53.142;17.962;2024-02-15T13:08:21;101389.66;;;10.90;81.94